Time;durP1;ratioP1;P1;durP2;ratioP2;P2;SDS_P1;SDS_P2;PMS_P1;PMS_P2;Temp;Humidity;BMP_temperature;BMP_pressure;BME280_temperature;BME280_humidity;BME280_pressure;Samples;Min_cycle;Max_cycle;Signal;HPM_P1;HPM_P2
2023/03/20 07:35:14;;;;;;;1.40;1.17;;;7.60;99.90;9.50;101654.00;;;;6391621;22;20255;-69
2023/03/20 07:38:15;;;;;;;1.90;1.80;;;7.50;99.90;10.10;101637.00;;;;6277940;22;1430765;-70
2023/03/20 07:41:01;;;;;;;1.47;1.13;;;7.60;99.90;10.10;101659.00;;;;6338544;22;20151;-70
2023/03/20 07:43:48;;;;;;;1.60;1.50;;;7.70;99.90;9.60;101662.00;;;;6338908;22;20175;-70
2023/03/20 07:46:29;;;;;;;1.83;1.67;;;7.60;99.90;9.80;101591.00;;;;6340089;22;20148;-69
2023/03/20 07:49:18;;;;;;;0.30;0.30;;;7.60;99.90;9.70;101664.00;;;;6340265;22;20568;-70
2023/03/20 07:52:16;;;;;;;0.30;0.30;;;7.60;99.90;9.50;101647.00;;;;6313312;22;20160;-70
2023/03/20 07:54:48;;;;;;;0.27;0.27;;;7.50;99.90;10.00;101660.00;;;;6339480;22;20614;-69
2023/03/20 07:57:27;;;;;;;1.13;1.03;;;7.70;99.90;9.40;101671.00;;;;6338566;22;20217;-69
2023/03/20 08:00:21;;;;;;;1.00;1.00;;;7.60;99.90;9.60;101659.00;;;;6338727;22;20140;-69
2023/03/20 08:02:59;;;;;;;1.23;0.87;;;7.70;99.90;9.70;101660.00;;;;6333128;22;20522;-70
2023/03/20 08:05:47;;;;;;;0.30;0.30;;;7.70;99.90;10.70;101664.00;;;;6332671;22;20224;-71
2023/03/20 08:08:34;;;;;;;0.30;0.30;;;8.00;99.90;11.30;101672.00;;;;6334778;22;20162;-71
2023/03/20 08:11:00;;;;;;;0.83;0.80;;;8.30;99.90;10.40;101690.00;;;;6335338;22;20153;-71
2023/03/20 08:13:47;;;;;;;0.30;0.30;;;8.30;99.90;10.60;101629.00;;;;6312564;22;20192;-71
2023/03/20 08:16:33;;;;;;;0.20;0.20;;;8.10;99.90;10.40;101630.00;;;;6339716;22;20194;-71
2023/03/20 08:19:02;;;;;;;1.53;0.93;;;8.10;99.90;11.50;101696.00;;;;6311936;22;20163;-71
2023/03/20 08:21:50;;;;;;;0.97;0.97;;;8.50;99.90;10.70;101689.00;;;;6339648;22;20133;-71
2023/03/20 08:24:18;;;;;;;0.80;0.80;;;8.40;99.90;11.30;101696.00;;;;6312920;22;20611;-71
2023/03/20 08:27:07;;;;;;;0.50;0.50;;;8.50;99.90;10.40;101682.00;;;;6338315;22;20144;-71
2023/03/20 08:29:56;;;;;;;0.20;0.20;;;8.50;99.90;10.90;101629.00;;;;6339575;22;20152;-71
2023/03/20 08:33:02;;;;;;;2.00;0.97;;;8.40;99.90;10.80;101682.00;;;;6338272;22;20478;-71
2023/03/20 08:35:55;;;;;;;1.37;1.07;;;8.40;99.90;10.30;101629.00;;;;6338223;22;20158;-71
2023/03/20 08:38:39;;;;;;;0.30;0.30;;;8.30;99.90;11.10;101693.00;;;;6338397;22;20208;-71
2023/03/20 08:41:28;;;;;;;0.40;0.40;;;8.40;99.90;10.30;101690.00;;;;6340030;22;20145;-71
2023/03/20 08:44:12;;;;;;;1.47;1.37;;;8.30;99.90;10.50;101651.00;;;;6338383;22;20239;-71
2023/03/20 08:47:02;;;;;;;1.27;1.23;;;8.40;99.90;10.20;101688.00;;;;6311286;22;20146;-72
2023/03/20 08:49:45;;;;;;;0.47;0.47;;;8.30;99.90;10.50;101681.00;;;;6338087;22;20154;-71
2023/03/20 08:52:50;;;;;;;0.30;0.30;;;8.30;99.90;10.60;101677.00;;;;6338229;22;20158;-71
2023/03/20 08:56:16;;;;;;;18.37;1.43;;;8.30;99.90;10.40;101684.00;;;;6312059;22;20238;-71
2023/03/20 08:58:53;;;;;;;1.00;1.00;;;8.40;99.90;11.40;101683.00;;;;6338493;22;20187;-71
2023/03/20 09:01:54;;;;;;;0.30;0.30;;;8.70;99.90;12.30;101719.00;;;;6337585;22;20202;-63
2023/03/20 09:04:20;;;;;;;0.97;0.97;;;9.20;99.90;11.70;101695.00;;;;6338191;22;20197;-71
2023/03/20 09:09:41;;;;;;;1.60;1.50;;;9.20;99.90;11.40;101699.00;;;;6337674;22;20493;-71
2023/03/20 09:12:31;;;;;;;0.53;0.53;;;9.20;99.90;11.60;101710.00;;;;6312585;22;20172;-74
2023/03/20 09:17:49;;;;;;;0.57;0.40;;;9.10;99.90;11.90;101705.00;;;;6337281;22;20594;-72
2023/03/20 09:20:18;;;;;;;0.30;0.30;;;9.20;99.90;11.60;101703.00;;;;6312068;22;20627;-76
2023/03/20 09:23:08;;;;;;;0.30;0.30;;;9.20;99.90;11.20;101705.00;;;;6311024;22;20736;-76
2023/03/20 09:25:39;;;;;;;0.50;0.50;;;9.30;99.90;12.40;101726.00;;;;6337836;22;20135;-76
2023/03/20 09:28:28;;;;;;;0.70;0.70;;;9.60;99.90;12.50;101656.00;;;;6310404;22;20182;-75
2023/03/20 09:31:12;;;;;;;1.90;1.80;;;9.70;99.90;11.80;101722.00;;;;6308815;22;20149;-76
2023/03/20 09:34:18;;;;;;;0.67;0.67;;;9.80;99.90;11.70;101727.00;;;;6335867;22;20166;-76
2023/03/20 09:37:02;;;;;;;0.43;0.43;;;9.70;99.90;10.90;101716.00;;;;6317470;22;20189;-76
2023/03/20 09:39:46;;;;;;;0.20;0.20;;;9.40;99.90;12.40;101731.00;;;;6310241;22;20242;-76
2023/03/20 09:42:46;;;;;;;0.33;0.33;;;9.70;99.90;12.00;101657.00;;;;6337846;22;20189;-76
2023/03/20 09:45:52;;;;;;;0.47;0.47;;;9.60;99.90;12.60;101722.00;;;;6310015;22;20163;-76
2023/03/20 09:49:00;;;;;;;0.43;0.43;;;9.80;99.90;11.90;101728.00;;;;6268898;22;20229;-76
2023/03/20 09:51:49;;;;;;;0.80;0.67;;;9.70;99.90;11.80;101724.00;;;;6310792;22;20151;-75
2023/03/20 09:54:47;;;;;;;0.70;0.70;;;9.80;99.90;12.60;101717.00;;;;6309321;22;20155;-76
2023/03/20 09:57:28;;;;;;;0.20;0.20;;;9.80;99.90;11.50;101714.00;;;;6301598;22;20156;-76
2023/03/20 10:00:36;;;;;;;0.30;0.30;;;9.60;99.90;11.40;101710.00;;;;6310066;22;20148;-75
2023/03/20 10:03:32;;;;;;;2.27;0.93;;;9.60;99.90;11.20;101702.00;;;;6311048;22;20187;-75
2023/03/20 10:06:48;;;;;;;1.03;0.73;;;9.50;99.90;12.40;101716.00;;;;6338147;22;20144;-75
2023/03/20 10:09:23;;;;;;;0.30;0.30;;;9.80;99.90;12.90;101686.00;;;;6325731;22;20164;-75
2023/03/20 10:12:19;;;;;;;0.70;0.70;;;10.00;99.90;12.90;101726.00;;;;6336437;22;20168;-76
2023/03/20 10:15:13;;;;;;;2.70;2.60;;;10.30;99.90;12.90;101729.00;;;;6336871;22;20239;-75
2023/03/20 10:17:54;;;;;;;0.40;0.40;;;10.00;99.90;12.20;101670.00;;;;6336286;22;20163;-75
2023/03/20 10:20:42;;;;;;;0.40;0.40;;;10.00;99.90;12.20;101708.00;;;;6334695;22;20158;-75
2023/03/20 10:34:05;;;;;;;0.67;0.67;;;9.10;99.90;11.30;101653.00;;;;5089640;28;21143;-75
2023/03/20 10:37:13;;;;;;;0.40;0.40;;;9.20;99.90;11.20;101647.00;;;;5054272;28;20216;-76
2023/03/20 10:39:55;;;;;;;1.60;1.30;;;9.30;99.90;12.00;101660.00;;;;5060762;28;20230;-73
2023/03/20 10:42:50;;;;;;;0.30;0.30;;;9.40;99.90;12.50;101669.00;;;;5062882;28;20248;-74
2023/03/20 10:45:37;;;;;;;0.40;0.40;;;9.70;99.90;13.30;101680.00;;;;5052129;28;20190;-73
2023/03/20 10:48:32;;;;;;;0.83;0.57;;;10.10;99.90;12.90;101702.00;;;;5070307;28;20235;-73
2023/03/20 10:51:13;;;;;;;1.10;1.10;;;10.40;99.90;12.90;101696.00;;;;5006381;28;20207;-71
2023/03/20 10:54:23;;;;;;;1.77;1.10;;;10.40;99.90;12.80;101693.00;;;;5008041;28;20187;-71
2023/03/20 10:57:25;;;;;;;0.37;0.37;;;10.50;99.90;14.40;101698.00;;;;5044650;28;20277;-71
2023/03/20 11:00:25;;;;;;;0.60;0.60;;;11.10;99.90;15.10;101713.00;;;;5035403;28;20655;-71
2023/03/20 11:03:40;;;;;;;0.17;0.17;;;12.30;99.90;14.40;101704.00;;;;5049035;28;20188;-72
2023/03/20 11:06:35;;;;;;;1.83;0.50;;;12.50;99.90;15.10;101667.00;;;;5045665;28;20678;-72
2023/03/20 11:09:25;;;;;;;0.27;0.27;;;12.30;99.90;15.50;101717.00;;;;5061164;28;20190;-72
2023/03/20 11:12:19;;;;;;;0.50;0.50;;;12.70;99.90;14.70;101676.00;;;;5043875;28;20206;-72
2023/03/20 11:15:24;;;;;;;4.93;2.00;;;12.40;99.90;14.90;101713.00;;;;5065119;28;20198;-72
2023/03/20 11:18:03;;;;;;;1.20;0.67;;;12.70;99.90;15.90;101691.00;;;;5050402;28;20220;-71
2023/03/20 11:21:05;;;;;;;0.37;0.37;;;13.20;99.90;17.10;101692.00;;;;5051515;28;20192;-72
2023/03/20 11:24:04;;;;;;;0.10;0.10;;;13.50;99.90;18.50;101716.00;;;;5083253;28;20194;-72
2023/03/20 11:26:42;;;;;;;12.10;3.83;;;14.50;99.90;14.60;101735.00;;;;5048848;28;20175;-71
2023/03/20 11:30:16;;;;;;;0.87;0.40;;;13.50;99.90;14.70;101673.00;;;;5051329;28;20182;-71
2023/03/20 11:33:08;;;;;;;3.23;2.43;;;12.20;99.90;14.80;101695.00;;;;5076397;28;20219;-72
2023/03/20 11:36:09;;;;;;;2.53;2.27;;;12.50;99.90;16.30;101698.00;;;;5056386;28;20273;-73
2023/03/20 11:39:33;;;;;;;0.10;0.10;;;12.90;99.90;16.70;101710.00;;;;5033026;28;20645;-76
2023/03/20 11:42:27;;;;;;;0.20;0.20;;;13.50;99.90;16.60;101716.00;;;;5068663;28;20198;-72
2023/03/20 11:45:36;;;;;;;1.90;0.67;;;13.30;99.90;15.00;101693.00;;;;5014220;28;20203;-74
2023/03/20 11:48:43;;;;;;;0.47;0.47;;;12.80;99.90;14.20;101680.00;;;;5028579;28;20554;-75
2023/03/20 11:51:45;;;;;;;1.13;1.03;;;12.30;99.90;14.40;101681.00;;;;5038112;28;20261;-73
2023/03/20 11:54:48;;;;;;;0.20;0.20;;;12.00;99.90;15.00;101687.00;;;;5054946;28;20182;-77
2023/03/20 11:57:38;;;;;;;18.50;1.17;;;12.60;99.90;14.80;101677.00;;;;5051618;28;20230;-72
2023/03/20 12:00:24;;;;;;;0.10;0.10;;;12.10;99.90;15.00;101685.00;;;;5021541;28;20182;-72
2023/03/20 12:03:35;;;;;;;0.20;0.20;;;12.10;99.90;15.40;101679.00;;;;5015394;28;20210;-69
2023/03/20 12:06:40;;;;;;;0.20;0.20;;;12.30;99.90;16.60;101686.00;;;;5047190;28;20193;-69
2023/03/20 12:09:37;;;;;;;2.50;2.10;;;12.90;99.90;15.40;101723.00;;;;5035690;28;20250;-69
2023/03/20 12:12:40;;;;;;;0.40;0.30;;;13.30;99.90;15.90;101685.00;;;;5034658;28;20195;-69
2023/03/20 12:15:33;;;;;;;3.70;3.40;;;12.70;99.90;15.20;101679.00;;;;5053030;28;20177;-69
2023/03/20 12:18:31;;;;;;;0.20;0.20;;;12.70;99.90;16.50;101689.00;;;;5020734;28;20182;-69
2023/03/20 12:21:58;;;;;;;1.00;1.00;;;13.30;99.90;15.60;101695.00;;;;5034967;28;20213;-69
2023/03/20 12:24:53;;;;;;;0.60;0.60;;;13.00;99.90;15.50;101636.00;;;;5036442;28;20187;-69
2023/03/20 12:28:05;;;;;;;0.30;0.30;;;12.70;99.90;14.60;101664.00;;;;5045932;28;20183;-69
2023/03/20 12:31:07;;;;;;;1.17;0.73;;;12.30;99.90;14.50;101649.00;;;;5007377;28;20220;-70
2023/03/20 12:33:43;;;;;;;0.10;0.10;;;12.00;99.90;14.70;101653.00;;;;5042718;28;20251;-66
2023/03/20 12:36:38;;;;;;;0.20;0.20;;;11.90;99.90;15.90;101626.00;;;;5036875;28;20608;-72
2023/03/20 12:40:07;;;;;;;7.73;1.53;;;12.30;99.90;13.20;101647.00;;;;5036819;28;20646;-72
2023/03/20 12:43:08;;;;;;;0.20;0.20;;;11.60;99.90;15.30;101666.00;;;;4960926;28;20252;-72
2023/03/20 12:46:00;;;;;;;0.20;0.20;;;11.80;99.90;13.80;101648.00;;;;4973625;28;20298;-72
2023/03/20 12:49:00;;;;;;;0.20;0.20;;;11.70;99.90;14.10;101653.00;;;;4953456;28;20200;-72
2023/03/20 12:54:37;;;;;;;0.40;0.40;;;12.10;99.90;15.30;101616.00;;;;4958219;28;20197;-78
2023/03/20 13:00:29;;;;;;;1.13;1.13;;;12.40;99.90;15.70;101656.00;;;;4970360;28;20247;-75
2023/03/20 13:03:20;;;;;;;0.30;0.30;;;12.50;99.90;16.60;101653.00;;;;4973357;28;20212;-75
2023/03/20 13:06:09;;;;;;;0.20;0.20;;;13.00;99.90;16.70;101648.00;;;;4986100;28;20204;-76
2023/03/20 13:09:16;;;;;;;0.20;0.20;;;13.20;99.90;16.80;101649.00;;;;4937085;29;20334;-76
2023/03/20 13:14:59;;;;;;;0.50;0.50;;;13.70;99.90;15.40;101594.00;;;;4964522;28;20197;-76
2023/03/20 13:17:58;;;;;;;1.67;1.20;;;13.10;99.90;14.60;101631.00;;;;4980633;28;20251;-76
2023/03/20 13:20:28;;;;;;;1.17;0.73;;;12.60;99.90;15.50;101636.00;;;;5026930;28;20199;-75
2023/03/20 13:23:27;;;;;;;0.10;0.10;;;12.70;99.90;16.20;101642.00;;;;5042882;28;20549;-76
2023/03/20 13:26:42;;;;;;;0.93;0.93;;;12.90;99.90;15.40;101641.00;;;;5042601;28;20183;-76
2023/03/20 13:29:40;;;;;;;0.97;0.97;;;12.70;99.90;15.20;101597.00;;;;5021279;28;20200;-76
2023/03/20 13:32:47;;;;;;;0.37;0.37;;;12.90;99.90;15.30;101642.00;;;;5045320;28;20225;-75
2023/03/20 13:35:38;;;;;;;1.00;1.00;;;12.80;99.90;15.50;101637.00;;;;5042283;28;20648;-76
2023/03/20 13:38:58;;;;;;;0.20;0.20;;;12.70;99.90;16.90;101654.00;;;;5051789;28;20272;-76
2023/03/20 13:41:54;;;;;;;0.30;0.30;;;13.00;99.90;14.70;101640.00;;;;5029627;28;20672;-75
2023/03/20 13:45:04;;;;;;;0.20;0.20;;;12.60;99.90;15.10;101635.00;;;;5041594;28;20247;-76
2023/03/20 13:47:51;;;;;;;0.20;0.20;;;12.50;99.90;15.40;101619.00;;;;5042385;28;20718;-75
2023/03/20 13:51:05;;;;;;;3.73;0.50;;;12.60;99.90;15.40;101632.00;;;;5026610;28;20273;-76
2023/03/20 13:53:49;;;;;;;0.20;0.20;;;12.60;99.90;15.90;101634.00;;;;5014250;28;20649;-76
2023/03/20 13:57:22;;;;;;;0.60;0.60;;;12.90;99.90;16.30;101636.00;;;;5052210;28;20237;-75
2023/03/20 14:00:19;;;;;;;0.53;0.47;;;13.30;99.90;15.90;101600.00;;;;5057718;28;20191;-74
2023/03/20 14:04:01;;;;;;;0.20;0.20;;;13.00;99.90;17.00;101625.00;;;;5051614;28;20248;-75
2023/03/20 14:06:48;;;;;;;0.17;0.17;;;13.30;99.90;16.50;101624.00;;;;5030637;28;20204;-75
2023/03/20 14:10:02;;;;;;;0.17;0.17;;;13.30;99.90;17.20;101614.00;;;;5042068;28;20200;-75
2023/03/20 14:13:13;;;;;;;0.77;0.77;;;13.60;99.90;16.00;101606.00;;;;5043260;28;20200;-74
2023/03/20 14:18:50;;;;;;;0.17;0.17;;;13.20;99.90;16.70;101604.00;;;;5035834;28;20200;-75
2023/03/20 14:21:55;;;;;;;1.60;1.50;;;13.30;99.90;14.60;101575.00;;;;5041825;28;20273;-73
2023/03/20 14:24:40;;;;;;;0.93;0.93;;;12.70;99.90;15.50;101581.00;;;;5026349;28;20202;-74
2023/03/20 14:27:27;;;;;;;1.70;0.93;;;12.90;99.90;14.40;101590.00;;;;5026468;28;20215;-74
2023/03/20 14:30:31;;;;;;;4.67;1.57;;;12.50;99.90;15.80;101597.00;;;;5041241;28;20654;-74
2023/03/20 14:33:13;;;;;;;0.20;0.20;;;12.70;99.90;15.00;101541.00;;;;5043907;28;20194;-75
2023/03/20 14:36:08;;;;;;;0.30;0.30;;;12.60;99.90;14.90;101567.00;;;;5041444;28;20316;-74
2023/03/20 14:39:20;;;;;;;0.73;0.73;;;12.40;99.90;15.40;101585.00;;;;5049716;28;20198;-75
2023/03/20 14:42:28;;;;;;;0.27;0.27;;;12.70;99.90;16.60;101583.00;;;;5005076;28;20559;-75
2023/03/20 14:45:15;;;;;;;0.20;0.20;;;12.80;99.90;16.50;101544.00;;;;5034726;28;20179;-75
2023/03/20 14:48:05;;;;;;;1.13;1.10;;;13.10;99.90;15.80;101588.00;;;;5044971;28;20192;-75
2023/03/20 14:50:52;;;;;;;5.57;0.83;;;13.20;99.90;14.80;101560.00;;;;5017362;28;20200;-75
2023/03/20 14:54:03;;;;;;;0.40;0.40;;;12.90;99.90;16.00;101578.00;;;;5018343;28;20201;-75
2023/03/20 14:56:55;;;;;;;0.63;0.63;;;12.70;99.90;15.20;101496.00;;;;5025599;28;20708;-75
2023/03/20 14:59:55;;;;;;;0.60;0.60;;;12.50;99.90;15.40;101541.00;;;;5024096;28;20193;-75
2023/03/20 15:03:16;;;;;;;0.20;0.20;;;12.50;99.90;15.90;101571.00;;;;5031209;28;20209;-75
2023/03/20 15:06:11;;;;;;;0.30;0.30;;;12.60;99.90;16.20;101511.00;;;;5022935;28;20201;-75
2023/03/20 15:09:06;;;;;;;0.20;0.20;;;12.80;99.90;16.00;101553.00;;;;5031309;28;20184;-75
2023/03/20 15:12:05;;;;;;;0.73;0.73;;;13.10;99.90;16.00;101497.00;;;;5014908;28;20243;-75
2023/03/20 15:14:57;;;;;;;0.30;0.30;;;12.70;99.90;15.90;101552.00;;;;5019875;28;20280;-76
2023/03/20 15:17:46;;;;;;;0.50;0.50;;;12.90;99.90;15.60;101497.00;;;;5027623;28;20604;-75
2023/03/20 15:20:16;;;;;;;0.43;0.43;;;12.80;99.90;15.70;101546.00;;;;5031868;28;20257;-75
2023/03/20 15:23:00;;;;;;;0.20;0.20;;;12.90;99.90;16.10;101561.00;;;;5055042;28;20241;-76
2023/03/20 15:25:43;;;;;;;1.37;1.33;;;12.90;99.90;16.00;101563.00;;;;5044188;28;20182;-75
2023/03/20 15:28:36;;;;;;;0.73;0.73;;;13.00;99.90;16.00;101527.00;;;;5030259;28;20265;-75
2023/03/20 15:31:34;;;;;;;1.07;0.97;;;13.20;99.90;15.50;101546.00;;;;5020963;28;20202;-75
2023/03/20 15:34:24;;;;;;;0.80;0.80;;;12.90;99.90;16.10;101541.00;;;;5035241;28;20179;-75
2023/03/20 15:37:23;;;;;;;2.70;2.50;;;12.70;99.90;14.40;101529.00;;;;5038982;28;20190;-75
2023/03/20 15:40:24;;;;;;;0.83;0.83;;;12.50;99.90;16.00;101553.00;;;;5034987;28;20209;-74
2023/03/20 15:43:42;;;;;;;5.20;1.03;;;12.70;99.90;15.00;101539.00;;;;5032296;28;20197;-74
2023/03/20 15:46:26;;;;;;;2.50;2.30;;;12.30;99.90;14.80;101544.00;;;;5037487;28;20197;-74
2023/03/20 15:49:29;;;;;;;0.20;0.20;;;12.50;99.90;15.50;101543.00;;;;5028738;28;20188;-74
2023/03/20 15:52:51;;;;;;;3.50;2.10;;;12.50;99.90;14.10;101550.00;;;;5002728;28;20703;-74
2023/03/20 15:56:03;;;;;;;0.30;0.30;;;12.60;99.90;16.30;101546.00;;;;5028160;28;20719;-74
2023/03/20 15:59:09;;;;;;;1.13;1.10;;;12.60;99.90;15.00;101533.00;;;;5054631;28;20586;-74
2023/03/20 16:02:15;;;;;;;2.37;1.80;;;12.80;99.90;14.40;101461.00;;;;5018619;28;20266;-74
2023/03/20 16:05:12;;;;;;;0.20;0.20;;;12.40;99.90;15.30;101482.00;;;;5033761;28;20189;-74
2023/03/20 16:08:18;;;;;;;2.00;0.50;;;12.50;99.90;15.10;101532.00;;;;5033400;28;20550;-74
2023/03/20 16:11:16;;;;;;;0.20;0.20;;;12.60;99.90;15.80;101532.00;;;;5032715;28;20732;-74
2023/03/20 16:14:06;;;;;;;0.20;0.20;;;12.80;99.90;16.80;101540.00;;;;5037309;28;20187;-75
2023/03/20 16:16:57;;;;;;;0.30;0.30;;;13.10;99.90;15.70;101481.00;;;;5006367;28;20223;-74
2023/03/20 16:19:44;;;;;;;0.10;0.10;;;13.00;99.90;15.70;101483.00;;;;5019900;28;20216;-74
2023/03/20 16:22:32;;;;;;;0.20;0.20;;;12.80;99.90;16.60;101557.00;;;;5028829;28;20248;-73
2023/03/20 16:25:05;;;;;;;0.90;0.87;;;13.10;99.90;15.60;101531.00;;;;5051359;28;20198;-71
2023/03/20 16:27:57;;;;;;;2.20;1.40;;;12.80;99.90;15.60;101526.00;;;;5070203;28;20202;-71
2023/03/20 16:30:43;;;;;;;0.20;0.20;;;12.90;99.90;17.10;101536.00;;;;5037541;28;20232;-71
2023/03/20 16:33:19;;;;;;;0.40;0.40;;;13.30;99.90;16.20;101552.00;;;;5035181;28;20359;-72
2023/03/20 16:35:59;;;;;;;1.43;1.23;;;13.30;99.90;15.80;101537.00;;;;5053227;28;20663;-71
2023/03/20 16:38:46;;;;;;;0.63;0.57;;;13.40;99.90;15.20;101494.00;;;;5037172;28;20188;-76
2023/03/20 16:41:36;;;;;;;7.00;1.03;;;12.80;99.90;15.10;101534.00;;;;5034541;28;20171;-69
2023/03/20 16:44:12;;;;;;;1.13;0.77;;;12.70;99.90;14.70;101537.00;;;;5037028;28;20189;-74
2023/03/20 16:47:18;;;;;;;0.20;0.20;;;12.50;99.90;16.30;101544.00;;;;5044267;28;20561;-74
2023/03/20 16:50:12;;;;;;;0.33;0.33;;;12.70;99.90;16.10;101540.00;;;;5044305;28;20221;-74
2023/03/20 16:53:02;;;;;;;0.87;0.70;;;13.00;99.90;15.00;101520.00;;;;5042642;28;20202;-74
2023/03/20 16:56:09;;;;;;;;;;;;;;;;;;;;;
2023/03/20 16:58:53;;;;;;;0.40;0.40;;;12.60;99.90;14.70;101521.00;;;;5044728;28;20196;-74
2023/03/20 17:01:48;;;;;;;0.37;0.37;;;12.30;99.90;14.20;101528.00;;;;5042673;28;20218;-68
2023/03/20 17:04:27;;;;;;;1.97;1.80;;;12.20;99.90;15.10;101527.00;;;;5072589;28;20280;-72
2023/03/20 17:07:38;;;;;;;11.30;2.07;;;12.40;99.90;13.80;101509.00;;;;5027295;28;20193;-73
2023/03/20 17:10:16;;;;;;;7.37;1.43;;;12.10;99.90;14.30;101485.00;;;;5027500;28;20204;-72
2023/03/20 17:13:20;;;;;;;0.77;0.77;;;12.00;99.90;15.60;101520.00;;;;5043533;28;20652;-72
2023/03/20 17:16:09;;;;;;;0.20;0.20;;;12.30;99.90;16.40;101553.00;;;;5028089;28;20290;-73
2023/03/20 17:19:01;;;;;;;0.57;0.57;;;12.80;99.90;17.10;101552.00;;;;5041762;28;20188;-72
2023/03/20 17:21:50;;;;;;;0.40;0.40;;;13.20;99.90;16.90;101539.00;;;;5058707;28;20671;-72
2023/03/20 17:24:22;;;;;;;2.77;2.67;;;13.40;99.90;15.80;101532.00;;;;5036395;28;20262;-74
2023/03/20 17:27:14;;;;;;;0.53;0.53;;;13.00;99.90;15.70;101518.00;;;;5040817;28;20660;-67
2023/03/20 17:30:27;;;;;;;0.20;0.20;;;12.90;99.90;17.10;101544.00;;;;5042755;28;20189;-69
2023/03/20 17:33:13;;;;;;;0.90;0.87;;;13.10;99.90;16.10;101538.00;;;;5044699;28;20549;-74
2023/03/20 17:36:34;;;;;;;1.03;1.03;;;13.20;99.90;16.30;101532.00;;;;5042633;28;20190;-73
2023/03/20 17:39:19;;;;;;;0.33;0.33;;;13.00;99.90;16.00;101539.00;;;;5047207;28;20193;-73
2023/03/20 17:41:55;;;;;;;0.30;0.30;;;13.00;99.90;16.40;101547.00;;;;5040589;28;20432;-73
2023/03/20 17:44:39;;;;;;;0.73;0.63;;;13.00;99.90;15.10;101537.00;;;;5042025;28;20234;-73
2023/03/20 17:47:16;;;;;;;0.70;0.70;;;12.80;99.90;15.60;101535.00;;;;5041639;28;20267;-73
2023/03/20 17:50:03;;;;;;;0.20;0.20;;;12.80;99.90;14.50;101543.00;;;;5039450;28;20194;-73
2023/03/20 17:52:49;;;;;;;0.30;0.30;;;12.40;99.90;15.80;101495.00;;;;5026674;28;20283;-73
2023/03/20 17:55:29;;;;;;;0.20;0.20;;;12.40;99.90;14.90;101485.00;;;;5040307;28;20283;-73
2023/03/20 17:57:55;;;;;;;0.47;0.47;;;12.30;99.90;15.70;101551.00;;;;5034951;28;20184;-73
2023/03/20 18:01:05;;;;;;;0.20;0.20;;;12.60;99.90;15.00;101542.00;;;;5034985;28;20184;-73
2023/03/20 18:03:51;;;;;;;1.70;1.70;;;12.40;99.90;15.80;101546.00;;;;5033915;28;20205;-73
2023/03/20 18:09:33;;;;;;;0.20;0.20;;;12.70;99.90;16.50;101541.00;;;;5052565;28;20197;-73
2023/03/20 18:12:18;;;;;;;0.20;0.20;;;12.90;99.90;16.20;101552.00;;;;5035046;28;20553;-73
2023/03/20 18:15:05;;;;;;;0.40;0.40;;;12.80;99.90;15.60;101549.00;;;;5043337;28;20190;-74
2023/03/20 18:17:59;;;;;;;0.27;0.27;;;12.70;99.90;15.90;101544.00;;;;5050991;28;20199;-74
2023/03/20 18:21:00;;;;;;;0.30;0.30;;;12.70;99.90;16.40;101561.00;;;;5025143;28;20195;-73
2023/03/20 18:24:11;;;;;;;0.20;0.20;;;12.90;99.90;16.40;101564.00;;;;5035285;28;20564;-74
2023/03/20 18:27:01;;;;;;;0.87;0.87;;;13.00;99.90;16.20;101548.00;;;;5068369;28;20244;-73
2023/03/20 18:30:17;;;;;;;0.60;0.60;;;12.80;99.90;15.50;101554.00;;;;5034294;28;20182;-73
2023/03/20 18:33:26;;;;;;;0.20;0.20;;;12.80;99.90;16.20;101545.00;;;;5011310;28;20205;-73
2023/03/20 18:36:21;;;;;;;0.20;0.20;;;12.60;99.90;17.00;101569.00;;;;5017852;28;20596;-73
2023/03/20 18:38:58;;;;;;;0.20;0.20;;;13.00;99.90;16.80;101556.00;;;;5050262;28;20670;-74
2023/03/20 18:41:55;;;;;;;0.57;0.57;;;13.10;99.90;14.90;101559.00;;;;5034439;28;20186;-73
2023/03/20 18:44:21;;;;;;;0.30;0.30;;;12.80;99.90;15.20;101502.00;;;;5029380;28;20656;-73
2023/03/20 18:46:51;;;;;;;0.80;0.80;;;12.50;99.90;16.10;101549.00;;;;5025530;28;20244;-73
2023/03/20 18:49:21;;;;;;;0.50;0.50;;;12.60;99.90;16.20;101570.00;;;;5040939;28;20186;-73
2023/03/20 18:51:51;;;;;;;0.20;0.20;;;12.70;99.90;16.40;101566.00;;;;5040206;28;20589;-74
2023/03/20 18:54:58;;;;;;;4.03;1.60;;;12.90;99.90;15.80;101560.00;;;;5059832;28;20190;-73
2023/03/20 18:58:02;;;;;;;1.30;1.17;;;13.00;99.90;14.40;101550.00;;;;5029519;28;20191;-73
2023/03/20 19:00:53;;;;;;;0.73;0.73;;;12.30;99.90;14.40;101549.00;;;;5045789;28;20193;-73
2023/03/20 19:03:43;;;;;;;0.20;0.20;;;11.90;99.90;15.40;101573.00;;;;5027315;28;20865;-73
2023/03/20 19:06:44;;;;;;;0.20;0.20;;;12.20;99.90;15.20;101555.00;;;;5028658;28;20723;-73
2023/03/20 19:09:40;;;;;;;0.53;0.53;;;12.30;99.90;15.20;101557.00;;;;5044255;28;20194;-73
2023/03/20 19:12:26;;;;;;;0.27;0.27;;;12.20;99.90;15.90;101566.00;;;;5061629;28;20666;-75
2023/03/20 19:15:35;;;;;;;4.77;2.87;;;12.70;99.90;14.80;101558.00;;;;5045804;28;20194;-74
2023/03/20 19:19:02;;;;;;;0.83;0.83;;;12.20;99.90;15.40;101547.00;;;;5078549;28;20563;-74
2023/03/20 19:22:11;;;;;;;;;;;;;;;;;;;;;
2023/03/20 19:24:59;;;;;;;0.50;0.50;;;12.50;99.90;14.80;101535.00;;;;5045479;28;20188;-74
2023/03/20 19:28:16;;;;;;;1.00;1.00;;;12.10;99.90;14.60;101544.00;;;;5043923;28;20266;-74
2023/03/20 19:31:20;;;;;;;0.20;0.20;;;12.10;99.90;15.40;101543.00;;;;5036202;28;20198;-75
2023/03/20 19:34:19;;;;;;;0.20;0.20;;;12.10;99.90;14.40;101535.00;;;;5040519;28;20213;-74
2023/03/20 19:37:23;;;;;;;0.20;0.20;;;11.90;99.90;15.20;101536.00;;;;5033481;28;20197;-74
2023/03/20 19:40:33;;;;;;;0.20;0.20;;;11.90;99.90;15.40;101531.00;;;;5049927;28;20201;-74
2023/03/20 19:43:40;;;;;;;0.20;0.20;;;12.10;99.90;15.60;101544.00;;;;5033666;28;20206;-74
2023/03/20 19:47:05;;;;;;;0.30;0.30;;;12.20;99.90;15.40;101540.00;;;;5025535;28;20246;-74
2023/03/20 19:50:23;;;;;;;0.20;0.20;;;12.10;99.90;14.90;101534.00;;;;5049014;28;20698;-74
2023/03/20 19:53:29;;;;;;;0.20;0.20;;;12.00;99.90;16.20;101550.00;;;;5054240;28;20198;-74
2023/03/20 19:56:33;;;;;;;0.20;0.20;;;12.40;99.90;16.60;101559.00;;;;5020221;28;20211;-75
2023/03/20 19:59:37;;;;;;;0.20;0.20;;;12.70;99.90;15.70;101540.00;;;;5038710;28;20232;-75
2023/03/20 20:02:44;;;;;;;1.77;1.70;;;12.70;99.90;16.30;101560.00;;;;5037053;28;20209;-74
2023/03/20 20:08:44;;;;;;;0.20;0.20;;;12.80;99.90;15.60;101540.00;;;;5054018;28;20196;-76
2023/03/20 20:11:25;;;;;;;1.50;1.17;;;12.60;99.90;16.00;101525.00;;;;5037383;28;20187;-74
2023/03/20 20:13:54;;;;;;;0.20;0.20;;;12.60;99.90;14.30;101522.00;;;;5053473;28;20207;-74
2023/03/20 20:16:58;;;;;;;1.67;1.57;;;12.00;99.90;13.40;101511.00;;;;5020925;28;20199;-74
2023/03/20 20:19:59;;;;;;;0.60;0.60;;;11.80;99.90;13.80;101497.00;;;;5022154;28;20608;-74
2023/03/20 20:22:45;;;;;;;6.20;2.87;;;11.30;99.90;13.80;101516.00;;;;5019419;28;20210;-74
2023/03/20 20:25:49;;;;;;;0.20;0.20;;;11.30;99.90;14.40;101503.00;;;;5046458;28;20235;-74
2023/03/20 20:28:34;;;;;;;1.17;1.07;;;11.40;99.90;13.70;101500.00;;;;5037248;28;20534;-74
2023/03/20 20:31:29;;;;;;;0.20;0.20;;;11.40;99.90;14.40;101504.00;;;;5053978;28;20188;-74
2023/03/20 20:34:08;;;;;;;1.20;1.20;;;11.40;99.90;15.60;101472.00;;;;5031719;28;20643;-74
2023/03/20 20:36:36;;;;;;;3.03;2.83;;;11.90;99.90;15.90;101523.00;;;;5037090;28;20201;-75
2023/03/20 20:39:28;;;;;;;0.50;0.50;;;12.00;99.90;16.40;101546.00;;;;5036689;28;20175;-74
2023/03/20 20:42:16;;;;;;;0.20;0.20;;;12.40;99.90;16.40;101553.00;;;;5030427;28;20670;-75
2023/03/20 20:45:10;;;;;;;0.30;0.30;;;12.60;99.90;14.80;101535.00;;;;5033697;28;20190;-74
2023/03/20 20:48:19;;;;;;;0.20;0.20;;;12.30;99.90;15.10;101532.00;;;;5032698;28;20216;-74
2023/03/20 20:51:23;;;;;;;0.30;0.30;;;11.90;99.90;16.30;101548.00;;;;5038285;28;20202;-75
2023/03/20 20:54:09;;;;;;;0.30;0.30;;;12.30;99.90;15.30;101531.00;;;;5036430;28;20186;-75
2023/03/20 20:56:57;;;;;;;0.40;0.40;;;12.20;99.90;15.40;101513.00;;;;5036762;28;20194;-75
